createdAt,value
2017-11-03T00:01:07.924Z,14.88
2017-11-03T00:03:43.016Z,14.79
2017-11-03T00:06:17.915Z,14.80
2017-11-03T00:08:52.327Z,14.82
2017-11-03T00:11:26.855Z,14.84
2017-11-03T00:14:01.944Z,14.73
2017-11-03T00:16:37.023Z,14.52
2017-11-03T00:19:11.440Z,14.42
2017-11-03T00:21:46.007Z,14.25
2017-11-03T00:24:20.471Z,14.25
2017-11-03T00:26:55.463Z,14.30
2017-11-03T00:29:30.551Z,14.42
2017-11-03T00:32:05.631Z,14.39
2017-11-03T00:34:40.032Z,14.33
2017-11-03T00:37:14.827Z,14.40
2017-11-03T00:39:50.053Z,14.47
2017-11-03T00:42:25.152Z,14.46
2017-11-03T00:45:00.168Z,14.42
2017-11-03T00:47:35.324Z,14.36
2017-11-03T00:50:10.342Z,14.34
2017-11-03T00:52:45.860Z,14.29
2017-11-03T00:55:20.728Z,14.40
2017-11-03T00:57:55.740Z,14.22
2017-11-03T01:00:30.187Z,13.68
2017-11-03T01:03:05.504Z,13.14
2017-11-03T01:05:40.714Z,12.63
2017-11-03T01:08:15.675Z,12.22
2017-11-03T01:10:50.032Z,11.88
2017-11-03T01:13:25.447Z,11.59
2017-11-03T01:15:59.923Z,11.33
2017-11-03T01:18:34.813Z,11.11
2017-11-03T01:21:09.860Z,10.90
2017-11-03T01:23:45.107Z,10.70
2017-11-03T01:26:19.852Z,10.41
2017-11-03T01:28:54.984Z,10.37
2017-11-03T01:31:30.268Z,10.20
2017-11-03T01:34:05.625Z,10.07
2017-11-03T01:36:40.688Z,9.92
2017-11-03T01:39:15.897Z,9.79
2017-11-03T01:41:50.933Z,9.64
2017-11-03T01:44:26.035Z,9.54
2017-11-03T01:47:00.428Z,9.47
2017-11-03T01:49:35.920Z,9.43
2017-11-03T01:52:10.448Z,9.33
2017-11-03T01:54:45.908Z,9.24
2017-11-03T01:57:20.563Z,9.19
2017-11-03T01:59:55.292Z,9.13
2017-11-03T02:02:30.388Z,9.13
2017-11-03T02:05:05.125Z,9.11
2017-11-03T02:07:39.647Z,9.11
2017-11-03T02:10:14.879Z,9.10
2017-11-03T02:12:50.271Z,9.05
2017-11-03T02:15:24.702Z,9.01
2017-11-03T02:18:00.084Z,8.98
2017-11-03T02:20:35.052Z,8.94
2017-11-03T02:23:09.333Z,8.92
2017-11-03T02:25:43.818Z,8.89
2017-11-03T02:28:18.921Z,8.87
2017-11-03T02:30:53.731Z,8.82
2017-11-03T02:33:28.658Z,8.79
2017-11-03T02:36:04.004Z,8.75
2017-11-03T02:38:38.628Z,8.71
2017-11-03T02:41:12.796Z,8.72
2017-11-03T02:43:47.636Z,8.73
2017-11-03T02:46:23.036Z,8.75
2017-11-03T02:48:58.292Z,8.76
2017-11-03T02:51:33.655Z,8.73
2017-11-03T02:54:08.719Z,8.74
2017-11-03T02:56:43.719Z,8.81
2017-11-03T02:59:18.880Z,8.86
2017-11-03T03:01:53.796Z,8.87
2017-11-03T03:04:28.908Z,8.89
2017-11-03T03:07:04.237Z,8.94
2017-11-03T03:09:39.176Z,8.88
2017-11-03T03:12:14.328Z,8.85
2017-11-03T03:14:49.176Z,8.86
2017-11-03T03:17:23.607Z,8.84
2017-11-03T03:19:59.320Z,8.83
2017-11-03T03:22:33.973Z,8.80
2017-11-03T03:25:08.644Z,8.79
2017-11-03T03:27:42.990Z,8.76
2017-11-03T03:30:17.781Z,8.69
2017-11-03T03:32:52.636Z,8.70
2017-11-03T03:35:28.095Z,8.69
2017-11-03T03:38:02.866Z,8.68
2017-11-03T03:40:38.317Z,8.70
2017-11-03T03:43:12.672Z,8.71
2017-11-03T03:45:47.291Z,8.70
2017-11-03T03:48:21.924Z,8.67
2017-11-03T03:50:56.268Z,8.61
2017-11-03T03:53:30.463Z,8.58
2017-11-03T03:56:04.852Z,8.52
2017-11-03T03:58:40.080Z,8.50
2017-11-03T04:01:14.545Z,8.44
2017-11-03T04:03:50.119Z,8.42
2017-11-03T04:06:25.115Z,8.41
2017-11-03T04:08:59.991Z,8.43
2017-11-03T04:11:35.330Z,8.45
2017-11-03T04:14:10.444Z,8.45
2017-11-03T04:16:45.596Z,8.41
2017-11-03T04:19:20.460Z,8.41
2017-11-03T04:21:55.867Z,8.31
2017-11-03T04:24:31.204Z,8.28
2017-11-03T04:27:06.001Z,8.24
2017-11-03T04:29:40.668Z,8.26
2017-11-03T04:32:15.481Z,8.34
2017-11-03T04:34:49.618Z,8.44
2017-11-03T04:37:24.900Z,8.44
2017-11-03T04:39:59.716Z,8.57
2017-11-03T04:42:33.780Z,8.60
2017-11-03T04:45:09.103Z,8.60
2017-11-03T04:47:44.056Z,8.60
2017-11-03T04:50:18.616Z,8.56
2017-11-03T04:52:53.969Z,8.53
2017-11-03T04:55:28.746Z,8.51
2017-11-03T04:58:03.936Z,8.53
2017-11-03T05:00:39.409Z,8.59
2017-11-03T05:03:14.104Z,8.64
2017-11-03T05:05:49.147Z,8.71
2017-11-03T05:08:24.271Z,8.69
2017-11-03T05:10:59.672Z,8.71
2017-11-03T05:13:34.415Z,8.69
2017-11-03T05:16:09.680Z,8.69
2017-11-03T05:18:44.783Z,8.67
2017-11-03T05:21:19.884Z,8.69
2017-11-03T05:23:54.911Z,8.69
2017-11-03T05:26:30.044Z,8.68
2017-11-03T05:29:04.996Z,8.65
2017-11-03T05:31:39.511Z,8.61
2017-11-03T05:34:14.439Z,8.65
2017-11-03T05:36:49.111Z,8.63
2017-11-03T05:39:23.711Z,8.67
2017-11-03T05:41:58.404Z,8.67
2017-11-03T05:44:33.700Z,8.63
2017-11-03T05:47:08.181Z,8.61
2017-11-03T05:49:43.186Z,8.56
2017-11-03T05:52:18.215Z,8.57
2017-11-03T05:54:53.319Z,8.50
2017-11-03T05:57:28.036Z,8.52
2017-11-03T06:00:03.112Z,8.52
2017-11-03T06:02:37.865Z,8.51
2017-11-03T06:05:13.136Z,8.53
2017-11-03T06:07:48.271Z,8.50
2017-11-03T06:10:25.260Z,8.44
2017-11-03T06:13:00.872Z,8.42
2017-11-03T06:15:35.307Z,8.43
2017-11-03T06:18:10.024Z,8.40
2017-11-03T06:20:45.460Z,8.48
2017-11-03T06:23:20.338Z,8.34
2017-11-03T06:25:55.483Z,8.20
2017-11-03T06:28:30.069Z,8.29
2017-11-03T06:31:04.832Z,8.34
2017-11-03T06:33:40.171Z,8.31
2017-11-03T06:36:15.360Z,8.26
2017-11-03T06:38:49.595Z,8.26
2017-11-03T06:41:24.548Z,8.33
2017-11-03T06:43:58.868Z,8.35
2017-11-03T06:46:33.811Z,8.38
2017-11-03T06:49:07.916Z,8.38
2017-11-03T06:51:42.380Z,8.29
2017-11-03T06:54:17.152Z,8.33
2017-11-03T06:56:52.176Z,8.41
2017-11-03T06:59:26.444Z,8.35
2017-11-03T07:02:00.952Z,8.38
2017-11-03T07:04:36.336Z,8.35
2017-11-03T07:07:10.795Z,8.34
2017-11-03T07:09:45.287Z,8.35
2017-11-03T07:12:20.971Z,8.32
2017-11-03T07:14:55.379Z,8.35
2017-11-03T07:17:30.775Z,8.42
2017-11-03T07:20:05.543Z,8.47
2017-11-03T07:22:40.309Z,8.48
2017-11-03T07:25:15.240Z,8.42
2017-11-03T07:27:50.700Z,8.33
2017-11-03T07:30:25.963Z,8.25
2017-11-03T07:33:01.288Z,8.30
2017-11-03T07:35:35.981Z,8.30
2017-11-03T07:38:11.351Z,8.31
2017-11-03T07:40:45.949Z,8.36
2017-11-03T07:43:20.724Z,8.41
2017-11-03T07:45:55.264Z,8.45
2017-11-03T07:48:30.405Z,8.53
2017-11-03T07:51:04.879Z,8.76
2017-11-03T07:53:39.463Z,8.88
2017-11-03T07:56:14.748Z,8.90
2017-11-03T07:58:50.124Z,8.89
2017-11-03T08:01:24.839Z,8.93
2017-11-03T08:03:59.999Z,9.03
2017-11-03T08:06:34.521Z,9.08
2017-11-03T08:09:09.644Z,9.12
2017-11-03T08:11:44.786Z,9.12
2017-11-03T08:14:19.308Z,9.16
2017-11-03T08:16:53.828Z,9.11
2017-11-03T08:19:27.792Z,9.12
2017-11-03T08:22:03.072Z,9.20
2017-11-03T08:24:37.829Z,9.27
2017-11-03T08:27:13.143Z,9.32
2017-11-03T08:29:48.463Z,9.37
2017-11-03T08:32:23.785Z,9.41
2017-11-03T08:34:58.588Z,9.43
2017-11-03T08:37:33.274Z,9.44
2017-11-03T08:40:08.760Z,9.50
2017-11-03T08:42:43.968Z,9.59
2017-11-03T08:45:18.521Z,9.71
2017-11-03T08:47:53.392Z,9.80
2017-11-03T08:50:28.131Z,9.87
2017-11-03T08:53:02.512Z,9.88
2017-11-03T08:55:37.516Z,9.85
2017-11-03T08:58:13.228Z,9.78
2017-11-03T09:00:48.504Z,9.78
2017-11-03T09:03:23.271Z,9.81
2017-11-03T09:05:58.088Z,9.89
2017-11-03T09:08:33.429Z,9.94
2017-11-03T09:11:08.143Z,9.98
2017-11-03T09:13:43.379Z,10.04
2017-11-03T09:16:18.343Z,10.10
2017-11-03T09:18:53.043Z,10.28
2017-11-03T09:21:28.035Z,10.39
2017-11-03T09:24:02.916Z,10.42
2017-11-03T09:26:37.852Z,10.48
2017-11-03T09:29:12.900Z,10.43
2017-11-03T09:31:47.532Z,10.40
2017-11-03T09:34:22.585Z,10.38
2017-11-03T09:36:57.620Z,10.40
2017-11-03T09:39:31.699Z,10.47
2017-11-03T09:42:06.127Z,10.58
2017-11-03T09:44:40.294Z,10.66
2017-11-03T09:47:14.724Z,10.68
2017-11-03T09:49:49.036Z,10.75
2017-11-03T09:52:24.294Z,10.77
2017-11-03T09:54:59.299Z,10.89
2017-11-03T09:57:34.320Z,10.87
2017-11-03T10:00:09.640Z,11.01
2017-11-03T10:02:44.039Z,11.05
2017-11-03T10:05:18.847Z,11.07
2017-11-03T10:07:53.706Z,11.15
2017-11-03T10:10:28.215Z,11.35
2017-11-03T10:13:02.328Z,11.51
2017-11-03T10:15:37.416Z,11.70
2017-11-03T10:18:11.832Z,11.80
2017-11-03T10:20:46.583Z,11.70
2017-11-03T10:23:21.360Z,11.86
2017-11-03T10:25:55.946Z,11.89
2017-11-03T10:28:30.994Z,12.03
2017-11-03T10:31:06.808Z,12.14
2017-11-03T10:33:41.495Z,12.28
2017-11-03T10:36:15.904Z,12.36
2017-11-03T10:38:51.273Z,12.33
2017-11-03T10:41:25.995Z,12.39
2017-11-03T10:44:00.902Z,12.48
2017-11-03T10:46:35.001Z,12.62
2017-11-03T10:49:10.228Z,12.67
2017-11-03T10:51:44.920Z,12.73
2017-11-03T10:54:19.424Z,12.81
2017-11-03T10:56:53.964Z,12.77
2017-11-03T10:59:28.477Z,12.80
2017-11-03T11:02:02.824Z,12.84
2017-11-03T11:04:37.811Z,12.88
2017-11-03T11:07:12.516Z,12.85
2017-11-03T11:09:47.268Z,12.92
2017-11-03T11:12:22.661Z,12.93
2017-11-03T11:14:57.212Z,12.94
2017-11-03T11:17:32.600Z,12.95
2017-11-03T11:20:07.176Z,12.96
2017-11-03T11:22:42.571Z,12.97
2017-11-03T11:25:17.584Z,13.01
2017-11-03T11:27:52.736Z,13.05
2017-11-03T11:30:27.242Z,13.08
2017-11-03T11:33:02.056Z,13.07
2017-11-03T11:35:36.545Z,13.09
2017-11-03T11:38:11.025Z,13.09
2017-11-03T11:40:45.128Z,13.00
2017-11-03T11:43:19.896Z,13.07
2017-11-03T11:45:55.300Z,13.07
2017-11-03T11:48:30.249Z,13.12
2017-11-03T11:51:04.243Z,13.21
2017-11-03T11:53:39.028Z,13.22
2017-11-03T11:56:13.613Z,13.25
2017-11-03T11:58:48.474Z,13.23
2017-11-03T12:01:23.327Z,13.26
2017-11-03T12:03:58.192Z,13.31
2017-11-03T12:06:33.255Z,13.23
2017-11-03T12:09:07.413Z,13.25
2017-11-03T12:11:42.463Z,13.17
2017-11-03T12:14:17.443Z,13.21
2017-11-03T12:16:52.379Z,13.11
2017-11-03T12:19:27.656Z,13.14
2017-11-03T12:22:02.096Z,13.16
2017-11-03T12:24:37.024Z,13.17
2017-11-03T12:27:12.008Z,13.18
2017-11-03T12:29:47.116Z,13.22
2017-11-03T12:32:21.980Z,13.33
2017-11-03T12:34:57.032Z,13.27
2017-11-03T12:37:32.016Z,13.29
2017-11-03T12:40:06.920Z,13.28
2017-11-03T12:42:41.565Z,13.24
2017-11-03T12:45:16.324Z,13.18
2017-11-03T12:47:50.871Z,13.08
2017-11-03T12:50:24.979Z,13.09
2017-11-03T12:52:59.760Z,13.15
2017-11-03T12:55:34.736Z,13.14
2017-11-03T12:58:08.841Z,13.07
2017-11-03T13:00:43.893Z,13.08
2017-11-03T13:03:18.065Z,13.08
2017-11-03T13:05:52.488Z,13.04
2017-11-03T13:08:27.455Z,13.09
2017-11-03T13:11:01.562Z,13.10
2017-11-03T13:13:36.392Z,13.07
2017-11-03T13:16:11.534Z,13.13
2017-11-03T13:18:46.759Z,13.13
2017-11-03T13:21:21.179Z,13.12
2017-11-03T13:23:55.596Z,13.18
2017-11-03T13:26:29.736Z,13.16
2017-11-03T13:29:03.730Z,13.12
2017-11-03T13:31:38.138Z,13.12
2017-11-03T13:34:13.101Z,13.07
2017-11-03T13:36:47.405Z,13.05
2017-11-03T13:39:22.441Z,13.15
2017-11-03T13:41:57.195Z,13.14
2017-11-03T13:44:32.213Z,13.17
2017-11-03T13:47:07.056Z,13.24
2017-11-03T13:49:41.324Z,13.25
2017-11-03T13:52:16.192Z,13.16
2017-11-03T13:54:51.491Z,13.05
2017-11-03T13:57:25.563Z,13.06
2017-11-03T14:00:00.618Z,13.06
2017-11-03T14:02:35.649Z,13.10
2017-11-03T14:05:10.063Z,13.05
2017-11-03T14:07:45.597Z,12.97
2017-11-03T14:10:20.344Z,12.92
2017-11-03T14:12:55.279Z,12.93
2017-11-03T14:15:30.340Z,13.00
2017-11-03T14:18:05.764Z,12.94
2017-11-03T14:20:40.808Z,12.90
2017-11-03T14:23:16.079Z,12.85
2017-11-03T14:25:51.172Z,12.85
2017-11-03T14:28:26.083Z,12.85
2017-11-03T14:31:00.823Z,12.88
2017-11-03T14:33:35.956Z,12.80
2017-11-03T14:36:11.036Z,12.80
2017-11-03T14:38:46.227Z,12.74
2017-11-03T14:41:20.637Z,12.70
2017-11-03T14:43:55.627Z,12.64
2017-11-03T14:46:30.275Z,12.58
2017-11-03T14:49:05.280Z,12.58
2017-11-03T14:51:40.097Z,12.60
2017-11-03T14:54:14.936Z,12.65
2017-11-03T14:56:50.271Z,12.70
2017-11-03T14:59:25.284Z,12.80
2017-11-03T15:02:00.459Z,12.79
2017-11-03T15:04:34.945Z,12.63
2017-11-03T15:07:10.199Z,12.61
2017-11-03T15:09:45.600Z,12.62
2017-11-03T15:12:20.492Z,12.51
2017-11-03T15:14:55.416Z,12.48
2017-11-03T15:17:30.584Z,12.44
2017-11-03T15:20:05.265Z,12.47
2017-11-03T15:22:39.952Z,12.48
2017-11-03T15:25:14.775Z,12.49
2017-11-03T15:27:49.639Z,12.44
2017-11-03T15:30:23.959Z,12.34
2017-11-03T15:33:00.300Z,12.35
2017-11-03T15:35:34.902Z,12.31
2017-11-03T15:38:09.707Z,12.33
2017-11-03T15:40:44.289Z,12.29
2017-11-03T15:43:18.884Z,12.25
2017-11-03T15:45:54.032Z,12.20
2017-11-03T15:48:29.044Z,12.30
2017-11-03T15:51:03.644Z,12.29
2017-11-03T15:53:39.086Z,12.29
2017-11-03T15:56:14.636Z,12.33
2017-11-03T15:58:49.368Z,12.34
2017-11-03T16:01:24.291Z,12.35
2017-11-03T16:03:59.263Z,12.41
2017-11-03T16:06:34.672Z,12.49
2017-11-03T16:09:09.751Z,12.58
2017-11-03T16:11:44.331Z,12.56
2017-11-03T16:14:19.589Z,12.51
2017-11-03T16:16:54.845Z,12.48
2017-11-03T16:19:30.091Z,12.47
2017-11-03T16:22:04.708Z,12.48
2017-11-03T16:24:38.992Z,12.38
2017-11-03T16:27:14.271Z,12.37
2017-11-03T16:29:49.632Z,12.30
2017-11-03T16:32:24.955Z,12.26
2017-11-03T16:35:00.000Z,12.24
2017-11-03T16:37:35.265Z,12.27
2017-11-03T16:40:10.250Z,12.26
2017-11-03T16:42:45.271Z,12.31
2017-11-03T16:45:20.008Z,12.35
2017-11-03T16:47:54.292Z,12.41
2017-11-03T16:50:28.699Z,12.43
2017-11-03T16:53:03.191Z,12.34
2017-11-03T16:55:38.008Z,12.27
2017-11-03T16:58:13.237Z,12.30
2017-11-03T17:00:48.148Z,12.31
2017-11-03T17:03:23.379Z,12.30
2017-11-03T17:05:58.384Z,12.34
2017-11-03T17:08:33.188Z,12.37
2017-11-03T17:11:07.508Z,12.24
2017-11-03T17:13:41.975Z,12.32
2017-11-03T17:16:17.119Z,12.28
2017-11-03T17:18:52.293Z,12.26
2017-11-03T17:21:27.684Z,12.21
2017-11-03T17:24:02.595Z,12.21
2017-11-03T17:26:37.168Z,12.16
2017-11-03T17:29:12.038Z,12.06
2017-11-03T17:31:47.028Z,12.06
2017-11-03T17:34:22.051Z,12.05
2017-11-03T17:36:57.072Z,12.01
2017-11-03T17:39:32.415Z,12.03
2017-11-03T17:42:07.083Z,12.02
2017-11-03T17:44:41.407Z,12.02
2017-11-03T17:47:16.497Z,12.00
2017-11-03T17:49:52.124Z,12.01
2017-11-03T17:52:26.755Z,11.97
2017-11-03T17:55:01.636Z,11.98
2017-11-03T17:57:36.951Z,12.01
2017-11-03T18:00:11.743Z,12.03
2017-11-03T18:02:45.872Z,12.04
2017-11-03T18:05:20.496Z,12.05
2017-11-03T18:07:55.332Z,12.06
2017-11-03T18:10:30.055Z,11.96
2017-11-03T18:13:05.068Z,11.89
2017-11-03T18:15:39.476Z,11.82
2017-11-03T18:18:14.264Z,11.74
2017-11-03T18:20:49.686Z,11.77
2017-11-03T18:23:25.076Z,11.74
2017-11-03T18:26:00.228Z,11.72
2017-11-03T18:28:34.700Z,11.72
2017-11-03T18:31:09.153Z,11.75
2017-11-03T18:33:43.528Z,11.75
2017-11-03T18:36:18.071Z,11.61
2017-11-03T18:38:52.944Z,11.54
2017-11-03T18:41:28.060Z,11.59
2017-11-03T18:44:03.366Z,11.52
2017-11-03T18:46:38.627Z,11.45
2017-11-03T18:49:13.799Z,11.48
2017-11-03T18:51:48.550Z,11.57
2017-11-03T18:54:23.215Z,11.54
2017-11-03T18:56:58.175Z,11.49
2017-11-03T18:59:33.313Z,11.47
2017-11-03T19:02:18.143Z,11.44
2017-11-03T19:04:53.031Z,11.40
2017-11-03T19:07:27.670Z,11.29
2017-11-03T19:10:02.739Z,11.35
2017-11-03T19:12:37.528Z,11.35
2017-11-03T19:15:12.348Z,11.30
2017-11-03T19:17:47.566Z,11.30
2017-11-03T19:20:22.180Z,11.35
2017-11-03T19:22:57.119Z,11.31
2017-11-03T19:25:31.912Z,11.28
2017-11-03T19:28:07.392Z,11.30
2017-11-03T19:30:42.463Z,11.28
2017-11-03T19:33:17.631Z,11.30
2017-11-03T19:35:52.628Z,11.25
2017-11-03T19:38:27.577Z,11.24
2017-11-03T19:41:02.996Z,11.26
2017-11-03T19:43:38.361Z,11.28
2017-11-03T19:46:13.325Z,11.26
2017-11-03T19:48:48.440Z,11.21
2017-11-03T19:51:23.244Z,11.24
2017-11-03T19:53:58.558Z,11.26
2017-11-03T19:56:33.015Z,11.34
2017-11-03T19:59:08.276Z,11.45
2017-11-03T20:01:42.796Z,11.48
2017-11-03T20:04:17.616Z,11.45
2017-11-03T20:06:52.847Z,11.43
2017-11-03T20:09:27.951Z,11.38
2017-11-03T20:12:03.179Z,11.32
2017-11-03T20:14:37.992Z,11.28
2017-11-03T20:17:12.947Z,11.26
2017-11-03T20:19:47.508Z,11.30
2017-11-03T20:22:22.560Z,11.26
2017-11-03T20:24:57.540Z,11.21
2017-11-03T20:27:32.675Z,11.17
2017-11-03T20:30:07.931Z,11.15
2017-11-03T20:32:43.003Z,11.10
2017-11-03T20:35:18.245Z,11.05
2017-11-03T20:37:53.387Z,11.05
2017-11-03T20:40:28.048Z,11.02
2017-11-03T20:43:03.249Z,10.92
2017-11-03T20:45:38.579Z,10.85
2017-11-03T20:48:13.308Z,10.83
2017-11-03T20:50:48.564Z,10.84
2017-11-03T20:53:23.952Z,10.82
2017-11-03T20:55:58.939Z,10.82
2017-11-03T20:58:34.091Z,10.83
2017-11-03T21:01:09.176Z,10.83
2017-11-03T21:03:43.724Z,10.78
2017-11-03T21:06:18.900Z,10.68
2017-11-03T21:08:54.032Z,10.63
2017-11-03T21:11:28.879Z,10.57
2017-11-03T21:14:03.362Z,10.55
2017-11-03T21:16:38.695Z,10.49
2017-11-03T21:19:13.644Z,10.43
2017-11-03T21:21:48.779Z,10.37
2017-11-03T21:24:23.499Z,10.35
2017-11-03T21:26:58.352Z,10.32
2017-11-03T21:29:33.227Z,10.28
2017-11-03T21:32:08.089Z,10.26
2017-11-03T21:34:43.136Z,10.26
2017-11-03T21:37:17.580Z,10.23
2017-11-03T21:39:52.068Z,10.20
2017-11-03T21:42:27.129Z,10.16
2017-11-03T21:45:01.952Z,10.17
2017-11-03T21:47:36.664Z,10.15
2017-11-03T21:50:11.684Z,10.07
2017-11-03T21:52:46.763Z,10.04
2017-11-03T21:55:21.668Z,10.00
2017-11-03T21:57:56.820Z,9.92
2017-11-03T22:00:32.044Z,9.86
2017-11-03T22:03:06.578Z,9.83
2017-11-03T22:05:41.798Z,9.78
2017-11-03T22:08:17.036Z,9.77
2017-11-03T22:10:52.232Z,9.70
2017-11-03T22:13:27.268Z,9.74
2017-11-03T22:16:01.670Z,9.76
2017-11-03T22:18:36.873Z,9.81
2017-11-03T22:21:11.499Z,9.89
2017-11-03T22:23:46.225Z,9.93
2017-11-03T22:26:21.272Z,9.94
2017-11-03T22:28:55.787Z,9.85
2017-11-03T22:31:30.599Z,9.88
2017-11-03T22:34:04.644Z,9.86
2017-11-03T22:36:39.712Z,9.80
2017-11-03T22:39:14.723Z,9.78
2017-11-03T22:41:49.871Z,9.78
2017-11-03T22:44:25.212Z,9.83
2017-11-03T22:47:00.620Z,9.85
2017-11-03T22:49:36.075Z,9.88
2017-11-03T22:52:10.450Z,9.89
2017-11-03T22:54:45.567Z,9.90
2017-11-03T22:57:20.910Z,9.84
2017-11-03T22:59:56.032Z,9.88
2017-11-03T23:02:30.460Z,9.89
2017-11-03T23:05:05.868Z,9.90
2017-11-03T23:07:40.740Z,9.81
2017-11-03T23:10:16.068Z,9.63
2017-11-03T23:12:51.224Z,9.57
2017-11-03T23:15:25.924Z,9.58
2017-11-03T23:18:00.685Z,9.60
2017-11-03T23:20:35.556Z,9.60
2017-11-03T23:23:10.210Z,9.55
2017-11-03T23:25:45.366Z,9.56
2017-11-03T23:28:20.636Z,9.51
2017-11-03T23:30:55.056Z,9.47
2017-11-03T23:33:30.152Z,9.44
2017-11-03T23:36:04.875Z,9.42
2017-11-03T23:38:40.036Z,9.33
2017-11-03T23:41:14.936Z,9.34
2017-11-03T23:43:50.011Z,9.29
2017-11-03T23:46:24.988Z,9.26
2017-11-03T23:48:59.953Z,9.25
2017-11-03T23:51:34.775Z,9.25
2017-11-03T23:54:09.780Z,9.24
2017-11-03T23:56:44.535Z,9.19
2017-11-03T23:59:19.808Z,9.13
